Time;durP1;ratioP1;P1;durP2;ratioP2;P2;SDS_P1;SDS_P2;PMS_P1;PMS_P2;Temp;Humidity;BMP_temperature;BMP_pressure;BME280_temperature;BME280_humidity;BME280_pressure;Samples;Min_cycle;Max_cycle;Signal;HPM_P1;HPM_P2
2022/08/18 00:00:33;;;;;;;9.00;3.13;;;19.00;99.90;;;;;;5057523;28;20181;-51
2022/08/18 00:03:04;;;;;;;10.00;3.53;;;19.00;99.90;;;;;;5057723;28;20256;-51
2022/08/18 00:05:30;;;;;;;8.57;3.53;;;19.00;99.90;;;;;;5057577;28;20238;-51
2022/08/18 00:07:56;;;;;;;10.30;3.33;;;18.90;99.90;;;;;;5057584;28;20176;-50
2022/08/18 00:10:22;;;;;;;8.60;3.22;;;18.90;99.90;;;;;;5057438;28;20658;-51
2022/08/18 00:12:48;;;;;;;6.95;2.90;;;18.90;99.90;;;;;;5057302;28;20177;-51
2022/08/18 00:15:15;;;;;;;7.10;3.47;;;18.90;99.90;;;;;;5057327;28;20643;-51
2022/08/18 00:17:42;;;;;;;8.98;3.53;;;18.90;99.90;;;;;;5057328;28;20177;-51
2022/08/18 00:20:14;;;;;;;9.35;2.83;;;18.90;99.90;;;;;;5057562;28;20165;-51
2022/08/18 00:22:40;;;;;;;9.88;3.45;;;18.90;99.90;;;;;;5057348;28;20177;-51
2022/08/18 00:25:08;;;;;;;10.88;3.50;;;18.90;99.90;;;;;;5057369;28;20720;-49
2022/08/18 00:27:36;;;;;;;10.27;3.65;;;19.00;99.90;;;;;;5057172;28;20172;-51
2022/08/18 00:30:05;;;;;;;12.15;4.70;;;18.90;99.90;;;;;;5057151;28;20551;-51
2022/08/18 00:32:35;;;;;;;11.15;4.20;;;18.90;99.90;;;;;;5057027;28;20675;-49
2022/08/18 00:35:14;;;;;;;10.48;3.70;;;18.90;99.90;;;;;;5057138;28;20200;-50
2022/08/18 00:37:41;;;;;;;8.82;4.03;;;18.90;99.90;;;;;;5057290;28;20184;-50
2022/08/18 00:40:09;;;;;;;9.32;4.70;;;18.90;99.90;;;;;;5057093;28;20178;-50
2022/08/18 00:42:46;;;;;;;13.98;4.65;;;18.90;99.90;;;;;;5057079;28;20298;-50
2022/08/18 00:45:22;;;;;;;15.23;5.05;;;18.90;99.90;;;;;;5057189;28;20195;-50
2022/08/18 00:47:47;;;;;;;13.05;5.45;;;18.80;99.90;;;;;;5057100;28;20175;-51
2022/08/18 00:50:18;;;;;;;11.68;5.40;;;18.80;99.90;;;;;;5057087;28;20252;-50
2022/08/18 00:52:54;;;;;;;8.63;4.70;;;18.80;99.90;;;;;;5056898;28;20695;-50
2022/08/18 00:55:21;;;;;;;11.77;4.93;;;18.70;99.90;;;;;;5057025;28;20184;-50
2022/08/18 00:57:50;;;;;;;10.20;4.97;;;18.70;99.90;;;;;;5057068;28;20333;-50
2022/08/18 01:00:16;;;;;;;12.98;5.60;;;18.70;99.90;;;;;;5056908;28;20161;-51
2022/08/18 01:02:49;;;;;;;11.95;5.38;;;18.60;99.90;;;;;;5057004;28;20250;-51
2022/08/18 01:05:32;;;;;;;11.10;5.20;;;18.60;99.90;;;;;;5056975;28;20174;-51
2022/08/18 01:07:59;;;;;;;11.88;5.13;;;18.60;99.90;;;;;;5056299;28;20642;-50
2022/08/18 01:10:25;;;;;;;11.73;5.45;;;18.60;99.90;;;;;;5052662;28;20193;-50
2022/08/18 01:12:57;;;;;;;17.08;5.20;;;18.60;99.90;;;;;;5053655;28;20667;-50
2022/08/18 01:15:25;;;;;;;15.80;5.50;;;18.60;99.90;;;;;;5053595;28;20169;-51
2022/08/18 01:23:46;;;;;;;13.65;4.60;;;18.50;99.90;;;;;;5011581;28;20562;-50
2022/08/18 01:26:15;;;;;;;11.40;4.00;;;18.50;99.90;;;;;;5044947;28;20197;-51
2022/08/18 01:28:43;;;;;;;12.70;4.57;;;18.60;99.90;;;;;;5053500;28;20177;-50
2022/08/18 01:31:12;;;;;;;18.55;5.00;;;18.50;99.90;;;;;;5053405;28;20277;-49
2022/08/18 01:33:41;;;;;;;13.10;4.55;;;18.50;99.90;;;;;;5053241;28;20165;-50
2022/08/18 01:36:16;;;;;;;14.13;4.72;;;18.50;99.90;;;;;;5053220;28;20628;-50
2022/08/18 01:38:43;;;;;;;16.63;4.38;;;18.50;99.90;;;;;;5053204;28;20259;-50
2022/08/18 01:41:09;;;;;;;15.23;3.95;;;18.60;99.90;;;;;;5053328;28;20204;-49
2022/08/18 01:43:36;;;;;;;13.00;4.18;;;18.60;99.90;;;;;;5053027;28;20711;-50
2022/08/18 01:46:03;;;;;;;16.02;4.20;;;18.60;99.90;;;;;;5053088;28;20173;-50
2022/08/18 01:48:34;;;;;;;11.82;4.22;;;18.60;99.90;;;;;;5053152;28;20212;-50
2022/08/18 01:51:05;;;;;;;14.48;4.55;;;18.60;99.90;;;;;;5052875;28;20685;-49
2022/08/18 01:53:30;;;;;;;13.02;4.13;;;18.60;99.90;;;;;;5052920;28;20252;-50
2022/08/18 01:55:56;;;;;;;20.38;4.53;;;18.50;99.90;;;;;;5052931;28;20232;-49
2022/08/18 01:58:26;;;;;;;18.20;4.55;;;18.50;99.90;;;;;;5052916;28;20186;-50
2022/08/18 02:00:57;;;;;;;9.32;3.80;;;18.50;99.90;;;;;;5052801;28;20173;-50
2022/08/18 02:03:25;;;;;;;19.52;5.55;;;18.50;99.90;;;;;;5052788;28;20188;-50
2022/08/18 02:05:57;;;;;;;20.98;6.65;;;18.50;99.90;;;;;;5052926;28;20231;-50
2022/08/18 02:08:22;;;;;;;18.45;5.43;;;18.40;99.90;;;;;;5052616;28;20161;-50
2022/08/18 02:10:48;;;;;;;17.95;5.32;;;18.50;99.90;;;;;;5052510;28;20275;-50
2022/08/18 02:13:14;;;;;;;16.98;5.68;;;18.50;99.90;;;;;;5052471;28;20173;-50
2022/08/18 02:15:41;;;;;;;19.85;5.18;;;18.50;99.90;;;;;;5052556;28;20300;-50
2022/08/18 02:18:20;;;;;;;13.35;5.05;;;18.50;99.90;;;;;;5052450;28;20644;-49
2022/08/18 02:20:46;;;;;;;15.77;5.40;;;18.40;99.90;;;;;;5052267;28;20181;-50
2022/08/18 02:23:11;;;;;;;14.43;5.43;;;18.50;99.90;;;;;;5052334;28;20215;-50
2022/08/18 02:25:37;;;;;;;14.23;5.05;;;18.50;99.90;;;;;;5052324;28;20178;-50
2022/08/18 02:28:04;;;;;;;20.13;5.70;;;18.50;99.90;;;;;;5052248;28;20178;-50
2022/08/18 02:30:32;;;;;;;16.48;5.75;;;18.50;99.90;;;;;;5052068;28;20173;-50
2022/08/18 02:32:58;;;;;;;17.02;5.88;;;18.50;99.90;;;;;;5052107;28;20568;-50
2022/08/18 02:35:24;;;;;;;12.55;5.72;;;18.50;99.90;;;;;;5052104;28;20254;-50
2022/08/18 02:37:49;;;;;;;14.65;6.55;;;18.40;99.90;;;;;;5052038;28;20177;-50
2022/08/18 02:40:16;;;;;;;14.43;6.05;;;18.40;99.90;;;;;;5052023;28;20177;-50
2022/08/18 02:42:45;;;;;;;17.85;6.22;;;18.40;99.90;;;;;;5051826;28;20224;-50
2022/08/18 02:45:12;;;;;;;16.50;6.78;;;18.40;99.90;;;;;;5051901;28;20174;-50
2022/08/18 02:47:39;;;;;;;15.57;6.43;;;18.40;99.90;;;;;;5051958;28;20165;-50
2022/08/18 02:50:05;;;;;;;19.52;6.82;;;18.40;99.90;;;;;;5051866;28;20188;-50
2022/08/18 02:52:34;;;;;;;17.05;5.55;;;18.40;99.90;;;;;;5051702;28;20672;-54
2022/08/18 02:55:03;;;;;;;18.23;5.57;;;18.40;99.90;;;;;;5051773;28;20170;-50
2022/08/18 02:57:29;;;;;;;20.55;6.28;;;18.40;99.90;;;;;;5051752;28;20649;-50
2022/08/18 02:59:56;;;;;;;13.63;5.40;;;18.40;99.90;;;;;;5051871;28;20169;-50
2022/08/18 03:02:22;;;;;;;17.50;5.10;;;18.40;99.90;;;;;;5051739;28;20161;-51
2022/08/18 03:04:48;;;;;;;19.23;5.45;;;18.40;99.90;;;;;;5051888;28;20220;-50
2022/08/18 03:07:13;;;;;;;24.20;6.22;;;18.40;99.90;;;;;;5051594;28;20165;-51
2022/08/18 03:09:40;;;;;;;22.98;5.90;;;18.30;99.90;;;;;;5051667;28;20722;-50
2022/08/18 03:12:08;;;;;;;15.25;5.43;;;18.30;99.90;;;;;;5051428;28;20220;-50
2022/08/18 03:14:34;;;;;;;16.02;5.25;;;18.30;99.90;;;;;;5051432;28;20196;-50
2022/08/18 03:17:03;;;;;;;21.98;4.82;;;18.20;99.90;;;;;;5051315;28;20184;-50
2022/08/18 03:19:29;;;;;;;16.92;5.85;;;18.20;99.90;;;;;;5051594;28;20176;-50
2022/08/18 03:21:58;;;;;;;17.70;5.38;;;18.20;99.90;;;;;;5051361;28;20169;-50
2022/08/18 03:24:24;;;;;;;21.40;5.63;;;18.20;99.90;;;;;;5051281;28;20172;-50
2022/08/18 03:26:51;;;;;;;19.92;6.15;;;18.20;99.90;;;;;;5051180;28;20212;-50
2022/08/18 03:29:18;;;;;;;17.33;5.93;;;18.20;99.90;;;;;;5051253;28;20173;-50
2022/08/18 03:31:44;;;;;;;15.90;5.63;;;18.10;99.90;;;;;;5050556;28;20213;-50
2022/08/18 03:34:11;;;;;;;17.30;5.53;;;18.20;99.90;;;;;;5051078;28;20177;-51
2022/08/18 03:36:37;;;;;;;13.77;5.47;;;18.10;99.90;;;;;;5051153;28;20176;-51
2022/08/18 03:39:09;;;;;;;19.65;5.57;;;18.10;99.90;;;;;;5051027;28;20173;-50
2022/08/18 03:41:37;;;;;;;15.50;5.57;;;18.10;99.90;;;;;;5050924;28;20175;-51
2022/08/18 03:44:02;;;;;;;12.70;5.57;;;18.10;99.90;;;;;;5050929;28;20762;-50
2022/08/18 03:46:28;;;;;;;16.10;5.53;;;18.00;99.90;;;;;;5049724;28;20259;-50
2022/08/18 03:48:57;;;;;;;20.40;6.03;;;18.00;99.90;;;;;;5050950;28;20654;-50
2022/08/18 03:51:25;;;;;;;14.05;5.00;;;18.00;99.90;;;;;;5050900;28;20208;-51
2022/08/18 03:53:54;;;;;;;15.48;5.35;;;18.00;99.90;;;;;;5050774;28;20165;-50
2022/08/18 03:56:25;;;;;;;15.95;5.00;;;18.10;99.90;;;;;;5050756;28;20177;-50
2022/08/18 03:58:56;;;;;;;21.80;5.03;;;18.00;99.90;;;;;;5050875;28;20306;-50
2022/08/18 04:01:29;;;;;;;17.25;4.70;;;18.00;99.90;;;;;;5050903;28;20256;-50
2022/08/18 04:04:01;;;;;;;13.70;4.80;;;18.00;99.90;;;;;;5050827;28;20244;-50
2022/08/18 04:06:30;;;;;;;18.00;5.43;;;18.00;99.90;;;;;;5050829;28;20252;-50
2022/08/18 04:08:59;;;;;;;16.75;5.38;;;18.00;99.90;;;;;;5050840;28;20188;-50
2022/08/18 04:11:25;;;;;;;16.30;5.55;;;18.00;99.90;;;;;;5050700;28;20201;-50
2022/08/18 04:13:51;;;;;;;11.93;5.03;;;18.00;99.90;;;;;;5050668;28;20165;-50
2022/08/18 04:16:17;;;;;;;15.35;5.15;;;18.00;99.90;;;;;;5050657;28;20180;-50
2022/08/18 04:18:43;;;;;;;19.25;5.32;;;18.10;99.90;;;;;;5050695;28;20169;-50
2022/08/18 04:21:12;;;;;;;11.85;4.72;;;18.10;99.90;;;;;;5050566;28;20174;-50
2022/08/18 04:23:39;;;;;;;15.95;5.53;;;18.10;99.90;;;;;;5050848;28;20177;-50
2022/08/18 04:26:07;;;;;;;20.45;5.68;;;18.10;99.90;;;;;;5050891;28;20386;-50
2022/08/18 04:28:34;;;;;;;17.00;5.45;;;18.00;99.90;;;;;;5050673;28;20200;-49
2022/08/18 04:31:05;;;;;;;13.75;4.53;;;18.00;99.90;;;;;;5050547;28;20197;-49
2022/08/18 04:33:31;;;;;;;11.80;4.60;;;18.00;99.90;;;;;;5050549;28;20298;-49
2022/08/18 04:35:56;;;;;;;17.73;5.10;;;18.00;99.90;;;;;;5050532;28;20169;-49
2022/08/18 04:38:23;;;;;;;17.90;4.95;;;18.00;99.90;;;;;;5050572;28;20210;-51
2022/08/18 04:40:49;;;;;;;14.18;4.85;;;18.00;99.90;;;;;;5050602;28;20169;-50
2022/08/18 04:43:15;;;;;;;15.88;4.85;;;17.90;99.90;;;;;;5051399;28;20248;-50
2022/08/18 04:45:41;;;;;;;8.93;4.45;;;18.00;99.90;;;;;;5054282;28;20215;-50
2022/08/18 04:48:07;;;;;;;13.07;5.18;;;17.90;99.90;;;;;;5054294;28;20179;-49
2022/08/18 04:50:34;;;;;;;13.98;4.63;;;18.00;99.90;;;;;;5054077;28;20170;-50
2022/08/18 04:55:53;;;;;;;13.77;4.65;;;18.00;99.90;;;;;;5054109;28;20302;-50
2022/08/18 04:58:20;;;;;;;15.52;5.05;;;18.10;99.90;;;;;;5054038;28;20203;-50
2022/08/18 05:00:46;;;;;;;22.88;4.90;;;18.00;99.90;;;;;;5053959;28;20173;-50
2022/08/18 05:03:12;;;;;;;16.27;5.28;;;18.10;99.90;;;;;;5054084;28;21004;-50
2022/08/18 05:05:38;;;;;;;21.58;4.90;;;18.00;99.90;;;;;;5053966;28;20201;-49
2022/08/18 05:08:04;;;;;;;12.18;4.80;;;18.00;99.90;;;;;;5053880;28;20542;-50
2022/08/18 05:10:30;;;;;;;15.80;5.20;;;18.00;99.90;;;;;;5053870;28;20169;-50
2022/08/18 05:12:56;;;;;;;20.70;5.75;;;18.00;99.90;;;;;;5053576;28;20675;-50
2022/08/18 05:15:22;;;;;;;12.07;5.20;;;18.00;99.90;;;;;;5053805;28;20169;-51
2022/08/18 05:17:48;;;;;;;15.43;5.45;;;18.00;99.90;;;;;;5053757;28;20673;-50
2022/08/18 05:20:13;;;;;;;25.38;5.22;;;17.90;99.90;;;;;;5053635;28;20196;-51
2022/08/18 05:22:42;;;;;;;15.55;5.35;;;17.90;99.90;;;;;;5053694;28;20173;-50
2022/08/18 05:25:09;;;;;;;14.88;5.15;;;17.90;99.90;;;;;;5053624;28;20218;-50
2022/08/18 05:27:39;;;;;;;15.73;5.93;;;17.90;99.90;;;;;;5053431;28;20162;-50
2022/08/18 05:30:06;;;;;;;26.83;5.95;;;17.90;99.90;;;;;;5053477;28;20227;-51
2022/08/18 05:32:50;;;;;;;19.30;6.18;;;17.90;99.90;;;;;;5053354;28;20574;-55
2022/08/18 05:35:24;;;;;;;16.90;6.55;;;17.90;99.90;;;;;;5053458;28;20201;-50
2022/08/18 05:38:27;;;;;;;23.35;7.10;;;17.90;99.90;;;;;;5052870;28;20174;-50
2022/08/18 05:41:21;;;;;;;17.33;6.57;;;17.90;99.90;;;;;;5030155;28;20189;-51
2022/08/18 05:43:47;;;;;;;18.42;6.78;;;17.80;99.90;;;;;;5053091;28;20247;-51
2022/08/18 05:46:15;;;;;;;17.38;6.40;;;17.90;99.90;;;;;;5053342;28;20176;-50
2022/08/18 05:48:40;;;;;;;17.25;6.90;;;17.80;99.90;;;;;;5053106;28;20262;-51
2022/08/18 05:51:16;;;;;;;22.10;6.88;;;17.90;99.90;;;;;;5053025;28;20239;-51
2022/08/18 05:56:46;;;;;;;21.85;6.28;;;17.90;99.90;;;;;;5015187;28;20187;-51
2022/08/18 05:59:16;;;;;;;24.88;7.30;;;17.90;99.90;;;;;;5053125;28;20183;-51
2022/08/18 06:01:46;;;;;;;22.92;7.10;;;17.90;99.90;;;;;;5052938;28;20177;-51
2022/08/18 06:04:37;;;;;;;20.02;6.80;;;17.90;99.90;;;;;;5052863;28;20176;-51
2022/08/18 06:07:07;;;;;;;19.55;6.78;;;17.90;99.90;;;;;;5052696;28;20204;-50
2022/08/18 06:09:53;;;;;;;18.13;6.88;;;17.90;99.90;;;;;;5053039;28;20653;-51
2022/08/18 06:12:25;;;;;;;22.50;7.00;;;17.90;99.90;;;;;;5052843;28;20213;-50
2022/08/18 06:14:56;;;;;;;25.63;7.03;;;17.90;99.90;;;;;;5052777;28;20166;-51
2022/08/18 06:17:36;;;;;;;20.40;7.60;;;18.00;99.90;;;;;;5052682;28;20185;-51
2022/08/18 06:20:21;;;;;;;19.08;6.80;;;18.00;99.90;;;;;;5052477;28;20617;-51
2022/08/18 06:23:05;;;;;;;19.10;6.65;;;18.00;99.90;;;;;;5052550;28;20248;-51
2022/08/18 06:25:45;;;;;;;23.20;6.50;;;18.00;99.90;;;;;;5052499;28;20181;-51
2022/08/18 06:28:14;;;;;;;25.02;6.78;;;18.10;99.90;;;;;;5052626;28;20568;-50
2022/08/18 06:30:46;;;;;;;22.58;7.15;;;18.20;99.90;;;;;;5052296;28;20177;-51
2022/08/18 06:33:23;;;;;;;20.65;6.45;;;18.30;99.90;;;;;;5052149;28;20648;-51
2022/08/18 06:35:53;;;;;;;26.35;7.03;;;18.30;99.90;;;;;;5052218;28;20165;-51
2022/08/18 06:38:49;;;;;;;17.90;6.90;;;18.30;99.90;;;;;;5052144;28;20169;-51
2022/08/18 06:41:33;;;;;;;22.45;5.97;;;18.40;99.90;;;;;;5052098;28;20261;-51
2022/08/18 06:44:06;;;;;;;22.13;7.10;;;18.40;99.90;;;;;;5051908;28;20307;-52
2022/08/18 06:46:53;;;;;;;23.95;7.18;;;18.40;99.90;;;;;;5052134;28;20176;-51
2022/08/18 06:49:39;;;;;;;16.75;6.90;;;18.50;99.90;;;;;;5051965;28;20243;-51
2022/08/18 06:52:18;;;;;;;21.67;7.25;;;18.60;99.90;;;;;;5051782;28;20201;-51
2022/08/18 06:54:43;;;;;;;21.75;7.43;;;18.60;99.90;;;;;;5051701;28;20603;-51
2022/08/18 06:57:22;;;;;;;17.83;7.03;;;18.80;99.90;;;;;;5051763;28;20229;-51
2022/08/18 07:00:16;;;;;;;20.88;8.20;;;18.90;99.90;;;;;;5051755;28;20169;-51
2022/08/18 07:02:50;;;;;;;23.05;8.48;;;18.90;99.90;;;;;;5051628;28;20173;-51
2022/08/18 07:05:31;;;;;;;25.02;8.80;;;18.90;99.90;;;;;;5051655;28;20173;-51
2022/08/18 07:08:12;;;;;;;17.67;8.32;;;19.00;99.90;;;;;;5049456;28;20226;-51
2022/08/18 07:10:41;;;;;;;16.52;9.48;;;19.10;99.90;;;;;;5051617;28;20169;-51
2022/08/18 07:13:11;;;;;;;22.25;9.35;;;19.10;99.90;;;;;;5051651;28;20173;-51
2022/08/18 07:15:37;;;;;;;22.75;9.48;;;19.20;99.90;;;;;;5051517;28;20212;-52
2022/08/18 07:18:06;;;;;;;19.92;10.05;;;19.30;99.90;;;;;;5051456;28;20204;-51
2022/08/18 07:20:44;;;;;;;23.40;9.68;;;19.30;99.90;;;;;;5051609;28;20181;-50
2022/08/18 07:23:29;;;;;;;19.15;9.85;;;19.30;99.90;;;;;;5051409;28;20168;-50
2022/08/18 07:26:00;;;;;;;28.25;10.07;;;19.30;99.90;;;;;;5051398;28;20211;-50
2022/08/18 07:28:30;;;;;;;19.55;9.35;;;19.30;99.90;;;;;;5051149;28;20248;-52
2022/08/18 07:31:41;;;;;;;20.70;8.48;;;19.40;99.90;;;;;;5051505;28;20204;-51
2022/08/18 07:34:15;;;;;;;18.85;9.57;;;19.40;99.90;;;;;;5032286;28;20195;-50
2022/08/18 07:36:53;;;;;;;22.15;9.20;;;19.50;99.90;;;;;;5051004;28;20191;-50
2022/08/18 07:39:26;;;;;;;17.00;8.15;;;19.40;99.90;;;;;;5051012;28;20204;-50
2022/08/18 07:42:00;;;;;;;22.98;8.82;;;19.40;99.90;;;;;;5050753;28;20180;-50
2022/08/18 07:44:52;;;;;;;22.80;8.55;;;19.50;99.90;;;;;;5050874;28;20192;-50
2022/08/18 07:47:24;;;;;;;21.77;8.20;;;19.50;99.90;;;;;;5050895;28;20169;-50
2022/08/18 07:49:57;;;;;;;19.35;7.78;;;19.50;99.90;;;;;;5051070;28;20177;-50
2022/08/18 07:52:35;;;;;;;21.58;8.35;;;19.70;99.90;;;;;;5050697;28;20205;-50
2022/08/18 07:55:08;;;;;;;21.55;8.40;;;19.60;99.90;;;;;;5051303;28;20173;-50
2022/08/18 07:57:55;;;;;;;17.73;8.15;;;19.70;99.90;;;;;;5050734;28;20189;-50
2022/08/18 08:00:22;;;;;;;19.48;8.48;;;19.70;99.90;;;;;;5050953;28;20165;-50
2022/08/18 08:02:48;;;;;;;22.90;8.80;;;19.70;99.90;;;;;;5050583;28;20598;-51
2022/08/18 08:05:32;;;;;;;23.08;9.50;;;19.70;99.90;;;;;;5050731;28;20265;-50
2022/08/18 08:08:05;;;;;;;20.48;8.32;;;19.80;99.90;;;;;;5050573;28;20169;-50
2022/08/18 08:10:48;;;;;;;16.80;8.23;;;20.10;99.90;;;;;;5050706;28;20165;-50
2022/08/18 08:13:23;;;;;;;11.13;6.88;;;20.50;99.90;;;;;;5050616;28;20267;-51
2022/08/18 08:15:51;;;;;;;17.98;7.70;;;20.40;99.90;;;;;;5050627;28;20238;-51
2022/08/18 08:18:35;;;;;;;15.48;6.65;;;20.40;99.90;;;;;;5051767;28;20176;-51
2022/08/18 08:21:09;;;;;;;14.50;6.32;;;20.30;99.90;;;;;;5054705;28;20173;-51
2022/08/18 08:23:47;;;;;;;14.75;6.47;;;20.40;99.90;;;;;;5054693;28;20227;-50
2022/08/18 08:26:36;;;;;;;16.10;5.88;;;20.40;99.90;;;;;;5054623;28;20277;-51
2022/08/18 08:29:20;;;;;;;16.35;5.93;;;20.80;99.90;;;;;;5054660;28;20266;-51
2022/08/18 08:32:05;;;;;;;10.55;5.28;;;20.80;99.90;;;;;;5054297;28;20321;-51
2022/08/18 08:34:51;;;;;;;12.40;5.53;;;20.90;99.90;;;;;;5054500;28;20169;-51
2022/08/18 08:37:31;;;;;;;11.90;5.55;;;21.00;99.90;;;;;;5054411;28;20169;-52
2022/08/18 08:40:12;;;;;;;10.05;5.78;;;21.10;99.90;;;;;;5054548;28;20169;-52
2022/08/18 08:43:10;;;;;;;17.23;6.78;;;21.00;99.90;;;;;;5054267;28;20252;-50
2022/08/18 08:45:43;;;;;;;14.73;5.80;;;21.30;99.90;;;;;;5054225;28;20173;-49
2022/08/18 08:48:23;;;;;;;11.10;5.25;;;21.20;99.90;;;;;;5054593;28;20204;-50
2022/08/18 08:50:52;;;;;;;13.70;5.22;;;21.30;99.90;;;;;;5054227;28;20667;-51
2022/08/18 08:53:28;;;;;;;11.68;5.75;;;21.60;99.90;;;;;;5052993;28;20188;-51
2022/08/18 08:55:58;;;;;;;12.07;5.53;;;21.90;99.90;;;;;;5054080;28;20172;-51
2022/08/18 08:58:43;;;;;;;8.35;5.50;;;21.60;99.90;;;;;;5054163;28;20660;-51
2022/08/18 09:01:21;;;;;;;13.18;5.07;;;21.60;99.90;;;;;;5054090;28;20540;-50
2022/08/18 09:03:54;;;;;;;10.13;5.63;;;21.60;99.90;;;;;;5054015;28;20628;-51
2022/08/18 09:06:20;;;;;;;7.80;5.50;;;21.50;99.90;;;;;;5054007;28;20276;-50
2022/08/18 09:09:12;;;;;;;8.90;5.95;;;21.10;99.90;;;;;;5053883;28;20196;-51
2022/08/18 09:11:58;;;;;;;11.73;6.35;;;20.90;99.90;;;;;;5053882;28;20270;-51
2022/08/18 09:14:44;;;;;;;13.13;6.03;;;20.80;99.90;;;;;;5053892;28;20223;-51
2022/08/18 09:17:55;;;;;;;14.70;6.88;;;20.90;99.90;;;;;;5046504;28;20181;-51
2022/08/18 09:20:52;;;;;;;11.18;5.95;;;20.90;99.90;;;;;;5053886;28;20234;-51
2022/08/18 09:23:24;;;;;;;10.40;5.72;;;21.20;99.90;;;;;;5053741;28;20177;-52
2022/08/18 09:25:55;;;;;;;9.13;5.72;;;21.40;99.90;;;;;;5053691;28;20307;-50
2022/08/18 09:28:52;;;;;;;9.00;5.32;;;21.60;99.90;;;;;;5053469;28;20169;-51
2022/08/18 09:31:18;;;;;;;10.75;5.22;;;21.70;99.90;;;;;;5052236;28;20197;-50
2022/08/18 09:33:57;;;;;;;6.07;4.80;;;21.70;99.90;;;;;;5053647;28;20179;-51
2022/08/18 09:36:29;;;;;;;13.70;5.47;;;21.60;99.90;;;;;;5053192;28;20161;-50
2022/08/18 09:42:13;;;;;;;13.98;5.93;;;21.50;99.90;;;;;;5053126;28;20536;-51
2022/08/18 09:44:45;;;;;;;12.15;5.57;;;21.20;99.90;;;;;;5053239;28;20208;-50
2022/08/18 09:47:23;;;;;;;12.02;5.40;;;20.90;99.90;;;;;;5053152;28;20188;-51
2022/08/18 09:49:56;;;;;;;7.68;4.25;;;20.80;99.90;;;;;;5053027;28;20542;-50
2022/08/18 09:52:22;;;;;;;9.82;4.90;;;21.00;99.90;;;;;;5052970;28;20307;-51
2022/08/18 09:55:16;;;;;;;13.15;5.70;;;21.10;99.90;;;;;;5052978;28;20632;-51
2022/08/18 09:57:43;;;;;;;16.15;5.18;;;21.00;99.90;;;;;;5052616;28;20178;-51
2022/08/18 10:00:12;;;;;;;8.48;5.28;;;21.10;99.90;;;;;;5052794;28;20219;-51
2022/08/18 10:02:40;;;;;;;11.00;5.00;;;21.40;99.90;;;;;;5052813;28;20235;-51
2022/08/18 10:05:14;;;;;;;10.30;5.32;;;21.50;99.90;;;;;;5053047;28;20176;-51
2022/08/18 10:07:43;;;;;;;16.23;6.30;;;22.10;99.90;;;;;;5052920;28;20176;-51
2022/08/18 10:10:31;;;;;;;12.07;5.00;;;22.50;99.90;;;;;;5052716;28;20173;-51
2022/08/18 10:13:05;;;;;;;12.13;6.40;;;23.00;99.90;;;;;;5052407;28;20221;-51
2022/08/18 10:16:04;;;;;;;12.63;5.65;;;22.70;99.90;;;;;;5052736;28;20181;-51
2022/08/18 10:18:42;;;;;;;11.70;5.20;;;22.40;99.90;;;;;;5043695;28;20243;-51
2022/08/18 10:21:20;;;;;;;11.95;5.75;;;22.00;99.90;;;;;;5052522;28;20662;-52
2022/08/18 10:23:53;;;;;;;11.10;5.72;;;21.60;99.90;;;;;;5052584;28;20168;-51
2022/08/18 10:26:39;;;;;;;12.98;5.30;;;21.90;99.90;;;;;;5052525;28;20665;-52
2022/08/18 10:29:40;;;;;;;10.85;6.30;;;22.70;99.90;;;;;;5031406;28;20190;-51
2022/08/18 10:32:12;;;;;;;10.82;5.38;;;22.80;99.90;;;;;;5052094;28;20904;-51
2022/08/18 10:34:47;;;;;;;10.27;6.30;;;23.00;99.90;;;;;;5052610;28;20181;-52
2022/08/18 10:37:34;;;;;;;10.73;5.20;;;23.40;99.90;;;;;;5052168;28;20716;-51
2022/08/18 10:40:12;;;;;;;13.55;6.10;;;23.60;99.90;;;;;;5052172;28;20246;-53
2022/08/18 10:43:12;;;;;;;14.77;5.47;;;23.10;99.90;;;;;;5051962;28;20229;-50
2022/08/18 10:45:45;;;;;;;7.85;5.63;;;22.70;99.90;;;;;;5051842;28;20173;-51
2022/08/18 10:48:14;;;;;;;10.23;5.57;;;22.50;99.90;;;;;;5051944;28;20182;-51
2022/08/18 10:50:48;;;;;;;10.90;5.05;;;22.60;99.90;;;;;;5051859;28;20193;-51
2022/08/18 10:53:46;;;;;;;7.78;5.15;;;22.90;99.90;;;;;;5052152;28;20189;-52
2022/08/18 10:56:18;;;;;;;9.73;4.30;;;23.70;99.90;;;;;;5034895;28;20181;-51
2022/08/18 10:59:11;;;;;;;6.32;3.75;;;24.20;99.90;;;;;;5051498;28;20275;-51
2022/08/18 11:01:52;;;;;;;6.03;3.60;;;24.70;99.90;;;;;;5051731;28;20226;-51
2022/08/18 11:04:28;;;;;;;5.72;3.38;;;24.90;99.90;;;;;;5051845;28;20222;-51
2022/08/18 11:07:07;;;;;;;5.72;2.85;;;25.20;99.90;;;;;;5051732;28;20192;-51
2022/08/18 11:09:33;;;;;;;5.28;3.00;;;25.60;99.90;;;;;;5051728;28;20260;-52
2022/08/18 11:12:02;;;;;;;6.70;2.80;;;25.30;99.90;;;;;;5051533;28;20299;-52
2022/08/18 11:15:09;;;;;;;4.88;2.90;;;25.80;99.90;;;;;;5051607;28;20223;-52
2022/08/18 11:17:55;;;;;;;8.60;2.75;;;26.70;99.90;;;;;;5051356;28;20157;-52
2022/08/18 11:20:26;;;;;;;4.35;2.80;;;27.20;99.90;;;;;;5051370;28;20183;-52
2022/08/18 11:22:55;;;;;;;4.88;2.75;;;26.30;99.90;;;;;;5051331;28;20165;-52
2022/08/18 11:25:29;;;;;;;7.85;2.95;;;26.70;99.90;;;;;;5051223;28;20288;-52
2022/08/18 11:27:55;;;;;;;7.85;2.55;;;26.40;99.90;;;;;;5051008;28;20180;-51
2022/08/18 11:30:25;;;;;;;4.15;2.72;;;25.90;99.90;;;;;;5051175;28;20192;-52
2022/08/18 11:32:51;;;;;;;4.97;2.58;;;25.50;99.90;;;;;;5049771;28;20606;-51
2022/08/18 11:35:32;;;;;;;5.45;2.40;;;26.60;99.90;;;;;;5051181;28;20161;-52
2022/08/18 11:38:00;;;;;;;4.75;2.30;;;29.20;99.90;;;;;;5051058;28;20180;-52
2022/08/18 11:40:37;;;;;;;5.32;2.45;;;31.20;99.90;;;;;;5051094;28;20173;-52
2022/08/18 11:43:08;;;;;;;6.63;2.90;;;29.80;99.90;;;;;;5051041;28;20609;-52
2022/08/18 11:45:56;;;;;;;6.15;3.00;;;27.50;99.90;;;;;;5051106;28;20177;-52
2022/08/18 11:48:46;;;;;;;10.10;3.03;;;25.80;99.90;;;;;;5030621;28;20184;-52
2022/08/18 11:51:23;;;;;;;6.00;3.10;;;24.90;99.90;;;;;;5050858;28;20271;-52
2022/08/18 11:53:48;;;;;;;6.40;3.55;;;24.40;99.90;;;;;;5050282;28;20184;-52
2022/08/18 11:56:17;;;;;;;8.40;3.45;;;24.00;99.90;;;;;;5050734;28;20180;-52
2022/08/18 11:58:49;;;;;;;5.18;3.92;;;23.90;99.90;;;;;;5050788;28;20179;-52
2022/08/18 12:01:30;;;;;;;5.13;3.30;;;25.60;99.90;;;;;;5050695;28;20536;-52
2022/08/18 12:04:17;;;;;;;7.03;3.08;;;27.60;99.90;;;;;;5050905;28;20173;-52
2022/08/18 12:06:55;;;;;;;6.10;3.10;;;28.50;99.90;;;;;;5043240;28;20185;-53
2022/08/18 12:09:26;;;;;;;5.00;2.47;;;27.20;99.90;;;;;;5050853;28;20177;-50
2022/08/18 12:12:12;;;;;;;3.92;2.55;;;26.50;99.90;;;;;;5050446;28;20328;-52
2022/08/18 12:15:10;;;;;;;7.25;3.10;;;26.90;99.90;;;;;;5050616;28;20527;-51
2022/08/18 12:17:36;;;;;;;3.30;2.20;;;27.70;99.90;;;;;;5027854;28;20256;-52
2022/08/18 12:20:05;;;;;;;5.78;2.60;;;28.80;99.90;;;;;;5050731;28;20331;-52
2022/08/18 12:22:31;;;;;;;9.00;2.47;;;28.90;99.90;;;;;;5050969;28;20204;-54
2022/08/18 12:24:57;;;;;;;5.78;2.60;;;28.50;99.90;;;;;;5050566;28;20201;-52
2022/08/18 12:27:25;;;;;;;2.97;2.20;;;28.50;99.90;;;;;;5050542;28;20244;-52
2022/08/18 12:29:54;;;;;;;7.25;2.38;;;28.40;99.90;;;;;;5050551;28;20176;-52
2022/08/18 12:32:21;;;;;;;5.35;2.60;;;27.90;99.90;;;;;;5050563;28;20223;-52
2022/08/18 12:34:48;;;;;;;6.40;2.58;;;27.00;99.90;;;;;;5050486;28;20161;-51
2022/08/18 12:37:20;;;;;;;5.05;2.65;;;26.00;99.90;;;;;;5050517;28;20173;-51
2022/08/18 12:39:46;;;;;;;7.20;2.90;;;25.80;99.90;;;;;;5050461;28;20197;-51
2022/08/18 12:42:12;;;;;;;6.90;2.90;;;25.20;99.90;;;;;;5050360;28;20307;-51
2022/08/18 12:44:37;;;;;;;5.57;3.03;;;25.10;99.90;;;;;;5050472;28;20227;-50
2022/08/18 12:47:11;;;;;;;6.38;3.00;;;25.00;99.90;;;;;;5050283;28;20173;-51
2022/08/18 12:49:37;;;;;;;6.75;2.92;;;24.90;99.90;;;;;;5050467;28;20254;-51
2022/08/18 12:52:03;;;;;;;7.50;3.03;;;24.50;99.90;;;;;;5050367;28;20207;-51
2022/08/18 12:54:31;;;;;;;8.73;3.00;;;24.00;99.90;;;;;;5050237;28;20570;-51
2022/08/18 12:56:57;;;;;;;14.18;3.70;;;24.00;99.90;;;;;;5050286;28;20170;-50
2022/08/18 12:59:23;;;;;;;7.85;3.20;;;24.00;99.90;;;;;;5050396;28;20175;-50
2022/08/18 13:01:49;;;;;;;7.22;3.00;;;24.60;99.90;;;;;;5050336;28;20169;-50
2022/08/18 13:04:15;;;;;;;7.32;2.90;;;24.80;99.90;;;;;;5051133;28;20176;-51
2022/08/18 13:06:52;;;;;;;6.30;2.83;;;25.10;99.90;;;;;;5054174;28;20181;-51
2022/08/18 13:09:18;;;;;;;6.43;2.63;;;25.60;99.90;;;;;;5053986;28;20180;-51
2022/08/18 13:11:43;;;;;;;4.88;2.60;;;27.20;99.90;;;;;;5053508;28;20212;-51
2022/08/18 13:14:09;;;;;;;6.93;2.72;;;28.00;99.90;;;;;;5053595;28;20189;-51
2022/08/18 13:16:39;;;;;;;9.13;3.28;;;28.10;99.90;;;;;;5053694;28;20165;-51
2022/08/18 13:19:08;;;;;;;8.13;2.50;;;27.40;99.90;;;;;;5053863;28;20189;-50
2022/08/18 13:21:34;;;;;;;8.02;2.38;;;26.80;99.90;;;;;;5053543;28;20177;-50